Time;durP1;ratioP1;P1;durP2;ratioP2;P2;SDS_P1;SDS_P2;PMS_P1;PMS_P2;Temp;Humidity;BMP_temperature;BMP_pressure;BME280_temperature;BME280_humidity;BME280_pressure;Samples;Min_cycle;Max_cycle;Signal;HPM_P1;HPM_P2
2021/01/25 00:01:01;;;;;;;16.20;7.03;;;0.40;99.90;;;;;;10382933;28;20057;-69
2021/01/25 00:06:02;;;;;;;17.40;9.10;;;0.40;99.90;;;;;;10378403;28;20064;-69
2021/01/25 00:11:06;;;;;;;12.13;5.57;;;0.40;99.90;;;;;;10387078;28;20045;-68
2021/01/25 00:16:07;;;;;;;13.15;5.35;;;0.50;99.90;;;;;;10372560;28;20063;-70
2021/01/25 00:21:08;;;;;;;9.75;5.40;;;0.60;99.90;;;;;;10402061;28;20357;-69
2021/01/25 00:26:10;;;;;;;10.85;5.55;;;0.70;99.90;;;;;;10400132;28;20049;-69
2021/01/25 00:31:11;;;;;;;7.80;4.05;;;0.80;99.90;;;;;;10395581;28;20045;-67
2021/01/25 00:36:12;;;;;;;10.32;4.32;;;0.80;99.90;;;;;;10395359;28;20053;-67
2021/01/25 00:41:13;;;;;;;6.05;3.83;;;0.80;99.90;;;;;;10357682;28;20057;-67
2021/01/25 00:46:15;;;;;;;7.47;3.92;;;0.90;99.90;;;;;;10381664;28;20056;-68
2021/01/25 00:51:16;;;;;;;10.55;4.32;;;0.90;99.90;;;;;;10376563;28;20050;-68
2021/01/25 00:56:18;;;;;;;6.05;3.95;;;0.90;99.90;;;;;;10388703;28;20053;-68
2021/01/25 01:01:19;;;;;;;6.93;4.10;;;1.00;99.90;;;;;;10377100;28;20676;-68
2021/01/25 01:06:21;;;;;;;9.25;3.80;;;1.00;99.90;;;;;;10380246;28;20057;-68
2021/01/25 01:11:22;;;;;;;9.40;4.43;;;0.90;99.90;;;;;;10357641;28;20103;-69
2021/01/25 01:16:23;;;;;;;7.30;3.65;;;0.80;99.90;;;;;;10364655;28;20403;-68
2021/01/25 01:21:24;;;;;;;9.40;4.57;;;0.80;99.90;;;;;;10378778;28;20117;-68
2021/01/25 01:26:25;;;;;;;7.28;3.80;;;0.70;99.90;;;;;;10333859;28;20442;-69
2021/01/25 01:31:26;;;;;;;11.55;4.22;;;0.80;99.90;;;;;;10361105;28;20593;-68
2021/01/25 01:36:28;;;;;;;9.15;4.38;;;0.80;99.90;;;;;;10360730;28;20037;-68
2021/01/25 01:41:36;;;;;;;9.13;4.75;;;0.80;99.90;;;;;;10349357;28;20091;-68
2021/01/25 01:46:41;;;;;;;13.07;4.68;;;0.70;99.90;;;;;;10360856;28;20111;-68
2021/01/25 01:51:43;;;;;;;8.48;4.85;;;0.70;99.90;;;;;;10360734;28;20041;-68
2021/01/25 01:56:44;;;;;;;7.47;3.83;;;0.70;99.90;;;;;;10339174;28;20045;-68
2021/01/25 02:01:45;;;;;;;7.20;4.38;;;0.70;99.90;;;;;;10358359;28;20058;-72
2021/01/25 02:06:48;;;;;;;11.30;4.80;;;0.80;99.90;;;;;;10370650;28;20049;-72
2021/01/25 02:11:50;;;;;;;8.13;4.55;;;0.70;99.90;;;;;;10369042;28;20507;-73
2021/01/25 02:16:51;;;;;;;6.45;4.22;;;0.80;99.90;;;;;;10368026;28;20055;-72
2021/01/25 02:22:25;;;;;;;6.97;4.38;;;0.80;99.90;;;;;;10358251;28;20048;-73
2021/01/25 02:27:34;;;;;;;9.00;4.93;;;0.80;99.90;;;;;;10362278;28;20052;-72
2021/01/25 02:32:36;;;;;;;10.75;5.38;;;0.70;99.90;;;;;;10377560;28;20045;-72
2021/01/25 02:37:39;;;;;;;10.45;5.63;;;0.70;99.90;;;;;;10378420;28;20147;-72
2021/01/25 02:42:41;;;;;;;10.38;4.53;;;0.70;99.90;;;;;;10372859;28;20053;-72
2021/01/25 02:47:43;;;;;;;9.88;5.53;;;0.70;99.90;;;;;;10374168;28;20107;-72
2021/01/25 02:52:45;;;;;;;11.23;5.35;;;0.70;99.90;;;;;;10381116;28;20871;-72
2021/01/25 02:57:47;;;;;;;9.95;6.05;;;0.70;99.90;;;;;;10375563;28;20061;-72
2021/01/25 03:02:48;;;;;;;8.45;5.15;;;0.70;99.90;;;;;;10325386;28;20554;-72
2021/01/25 03:07:51;;;;;;;12.10;4.97;;;0.70;99.90;;;;;;10357058;28;20100;-72
2021/01/25 03:12:59;;;;;;;7.93;4.50;;;0.60;99.90;;;;;;10360003;28;20049;-72
2021/01/25 03:18:01;;;;;;;10.10;5.38;;;0.70;99.90;;;;;;10373214;28;20426;-72
2021/01/25 03:23:03;;;;;;;8.00;5.07;;;0.70;99.90;;;;;;10376828;28;20119;-72
2021/01/25 03:28:04;;;;;;;12.00;6.07;;;0.70;99.90;;;;;;10363651;28;20098;-72
2021/01/25 03:33:06;;;;;;;10.38;6.00;;;0.70;99.90;;;;;;10356898;28;20100;-72
2021/01/25 03:38:07;;;;;;;10.50;5.70;;;0.70;99.90;;;;;;10355309;28;20046;-72
2021/01/25 03:43:08;;;;;;;8.02;5.25;;;0.70;99.90;;;;;;10366696;28;20061;-72
2021/01/25 03:48:09;;;;;;;10.65;5.30;;;0.70;99.90;;;;;;10349734;28;20066;-72
2021/01/25 03:53:11;;;;;;;7.43;4.35;;;0.70;99.90;;;;;;10346578;28;20392;-72
2021/01/25 03:58:12;;;;;;;8.13;4.88;;;0.70;99.90;;;;;;10353955;28;20046;-72
2021/01/25 04:03:14;;;;;;;9.65;5.18;;;0.70;99.90;;;;;;10344510;28;20070;-72
2021/01/25 04:08:15;;;;;;;9.02;4.95;;;0.70;99.90;;;;;;10342249;28;20581;-73
2021/01/25 04:13:16;;;;;;;10.82;4.97;;;0.70;99.90;;;;;;10344688;28;20054;-72
2021/01/25 04:18:17;;;;;;;7.82;4.10;;;0.70;99.90;;;;;;10346196;28;20053;-72
2021/01/25 04:23:19;;;;;;;7.57;3.55;;;0.80;99.90;;;;;;10365041;28;20077;-72
2021/01/25 04:28:21;;;;;;;9.23;3.83;;;0.80;99.90;;;;;;10352181;28;20675;-72
2021/01/25 04:33:22;;;;;;;7.35;4.00;;;0.80;99.90;;;;;;10342002;28;20058;-72
2021/01/25 04:38:23;;;;;;;10.82;4.30;;;0.80;99.90;;;;;;10365178;28;20060;-72
2021/01/25 04:43:26;;;;;;;6.35;4.13;;;0.80;99.90;;;;;;10351115;28;20069;-72
2021/01/25 04:48:29;;;;;;;11.98;5.50;;;0.80;99.90;;;;;;10350872;28;20038;-72
2021/01/25 04:53:31;;;;;;;9.35;4.72;;;0.60;99.90;;;;;;10338603;28;20046;-72
2021/01/25 04:58:33;;;;;;;14.65;4.93;;;0.60;99.90;;;;;;10366706;28;20050;-72
2021/01/25 05:03:34;;;;;;;11.38;5.35;;;0.60;99.90;;;;;;10352212;28;20054;-72
2021/01/25 05:08:35;;;;;;;11.70;6.20;;;0.60;99.90;;;;;;10380525;28;20061;-72
2021/01/25 05:13:36;;;;;;;8.63;5.25;;;0.60;99.90;;;;;;10345873;28;20057;-72
2021/01/25 05:18:37;;;;;;;12.43;7.30;;;0.60;99.90;;;;;;10369487;28;20492;-72
2021/01/25 05:23:40;;;;;;;10.65;5.85;;;0.60;99.90;;;;;;10343460;28;20060;-72
2021/01/25 05:28:43;;;;;;;10.98;6.20;;;0.70;99.90;;;;;;10348500;28;20104;-72
2021/01/25 05:33:44;;;;;;;34.72;7.40;;;0.60;99.90;;;;;;10374824;28;20578;-72
2021/01/25 05:38:50;;;;;;;12.00;6.30;;;0.70;99.90;;;;;;10372322;28;20068;-72
2021/01/25 05:43:51;;;;;;;12.00;7.82;;;0.70;99.90;;;;;;10356432;28;20107;-71
2021/01/25 05:48:57;;;;;;;13.05;6.30;;;0.70;99.90;;;;;;10362808;28;20050;-71
2021/01/25 05:54:03;;;;;;;10.63;6.60;;;0.70;99.90;;;;;;10380368;28;20046;-71
2021/01/25 05:59:04;;;;;;;11.48;6.88;;;0.70;99.90;;;;;;10374206;28;20046;-71
2021/01/25 06:04:06;;;;;;;16.55;7.00;;;0.70;99.90;;;;;;10374059;28;20492;-72
2021/01/25 06:09:22;;;;;;;14.25;6.85;;;0.80;99.90;;;;;;10376580;28;20053;-71
2021/01/25 06:14:47;;;;;;;13.77;6.07;;;0.80;99.90;;;;;;10374901;28;20045;-66
2021/01/25 06:19:49;;;;;;;10.95;6.68;;;0.80;99.90;;;;;;10373648;28;20057;-65
2021/01/25 06:24:50;;;;;;;12.05;6.30;;;0.90;99.90;;;;;;10354771;28;20049;-65
2021/01/25 06:29:53;;;;;;;15.52;7.13;;;0.90;99.90;;;;;;10352021;28;20054;-65
2021/01/25 06:34:55;;;;;;;14.52;7.13;;;0.90;99.90;;;;;;10343512;28;20552;-66
2021/01/25 06:39:58;;;;;;;11.30;6.65;;;1.00;99.90;;;;;;10348568;28;20050;-66
2021/01/25 06:45:01;;;;;;;13.32;7.20;;;0.90;99.90;;;;;;10350621;28;20369;-66
2021/01/25 06:50:04;;;;;;;15.30;8.63;;;1.00;99.90;;;;;;10365967;28;20062;-65
2021/01/25 06:55:09;;;;;;;12.75;6.95;;;1.00;99.90;;;;;;10359903;28;21023;-66
2021/01/25 07:00:14;;;;;;;14.70;7.00;;;1.00;99.90;;;;;;10376144;28;20065;-66
2021/01/25 07:05:20;;;;;;;17.95;7.32;;;1.00;99.90;;;;;;10370300;28;20865;-66
2021/01/25 07:10:22;;;;;;;13.00;6.90;;;1.00;99.90;;;;;;10361656;28;20049;-65
2021/01/25 07:15:24;;;;;;;13.52;8.52;;;1.00;99.90;;;;;;10361955;28;20045;-64
2021/01/25 07:20:26;;;;;;;18.92;9.43;;;1.00;99.90;;;;;;10375081;28;20065;-64
2021/01/25 07:25:31;;;;;;;17.10;8.68;;;1.10;99.90;;;;;;10381783;28;20050;-63
2021/01/25 07:30:32;;;;;;;13.52;8.32;;;1.10;99.90;;;;;;10369233;28;20052;-65
2021/01/25 07:35:33;;;;;;;14.63;7.63;;;1.10;99.90;;;;;;10362737;28;20554;-64
2021/01/25 07:40:35;;;;;;;12.52;7.35;;;1.10;99.90;;;;;;10356884;28;20499;-64
2021/01/25 07:45:36;;;;;;;15.93;8.07;;;1.20;99.90;;;;;;10365715;28;20484;-64
2021/01/25 07:50:38;;;;;;;17.17;8.02;;;1.20;99.90;;;;;;10387654;28;20042;-63
2021/01/25 07:55:40;;;;;;;16.08;8.55;;;1.20;99.90;;;;;;10374344;28;20054;-63
2021/01/25 08:00:42;;;;;;;14.88;7.88;;;1.30;99.90;;;;;;10371820;28;20492;-64
2021/01/25 08:05:48;;;;;;;21.25;8.10;;;1.30;99.90;;;;;;10376473;28;20097;-63
2021/01/25 08:10:50;;;;;;;16.98;7.57;;;1.30;99.90;;;;;;10363433;28;20045;-64
2021/01/25 08:16:02;;;;;;;14.73;8.23;;;1.20;99.90;;;;;;10378035;28;20057;-63
2021/01/25 08:21:05;;;;;;;12.55;8.05;;;1.20;99.90;;;;;;10371156;28;20043;-63
2021/01/25 08:26:09;;;;;;;14.20;7.30;;;1.30;99.90;;;;;;10372565;28;20049;-63
2021/01/25 08:31:16;;;;;;;15.88;7.47;;;1.40;99.90;;;;;;10381196;28;20381;-63
2021/01/25 08:36:26;;;;;;;9.90;6.82;;;1.40;99.90;;;;;;10402039;28;20061;-63
2021/01/25 08:41:32;;;;;;;13.68;7.03;;;1.40;99.90;;;;;;10392691;28;20041;-64
2021/01/25 08:46:38;;;;;;;17.33;7.32;;;1.50;99.90;;;;;;10380345;28;20041;-63
2021/01/25 08:51:40;;;;;;;18.15;7.50;;;1.60;99.90;;;;;;10388275;28;20045;-63
2021/01/25 08:56:41;;;;;;;17.35;9.18;;;1.60;99.90;;;;;;10401038;28;20057;-63
2021/01/25 09:01:45;;;;;;;13.80;7.18;;;1.70;99.90;;;;;;10393245;28;20108;-64
2021/01/25 09:06:54;;;;;;;13.63;7.53;;;1.60;99.90;;;;;;10385360;28;20072;-64
2021/01/25 09:11:56;;;;;;;11.88;7.05;;;1.60;99.90;;;;;;10388393;28;20049;-64
2021/01/25 09:17:00;;;;;;;18.15;7.75;;;1.70;99.90;;;;;;10386098;28;20049;-64
2021/01/25 09:22:03;;;;;;;14.20;7.00;;;1.60;99.90;;;;;;10357314;28;20142;-62
2021/01/25 09:27:04;;;;;;;15.85;8.00;;;1.70;99.90;;;;;;10386853;28;20064;-62
2021/01/25 09:32:06;;;;;;;13.75;7.30;;;1.70;99.90;;;;;;10385536;28;20049;-64
2021/01/25 09:37:09;;;;;;;18.00;6.75;;;1.80;99.90;;;;;;10401050;28;20487;-62
2021/01/25 09:42:11;;;;;;;12.18;7.70;;;1.90;99.90;;;;;;10401639;28;20050;-61
2021/01/25 09:47:12;;;;;;;13.85;8.23;;;1.90;99.90;;;;;;10401998;28;20044;-61
2021/01/25 09:52:14;;;;;;;13.43;7.90;;;1.90;99.90;;;;;;10398357;28;20069;-61
2021/01/25 09:57:15;;;;;;;15.05;7.43;;;2.00;99.90;;;;;;10394844;28;20099;-60
2021/01/25 10:02:16;;;;;;;14.48;8.05;;;2.20;99.90;;;;;;10407260;28;20114;-61
2021/01/25 10:07:18;;;;;;;15.70;8.50;;;2.20;99.90;;;;;;10405006;28;20046;-61
2021/01/25 10:12:19;;;;;;;16.48;8.65;;;2.30;99.90;;;;;;10392061;28;20049;-61
2021/01/25 10:17:21;;;;;;;16.00;7.65;;;2.40;99.90;;;;;;10382940;28;20442;-62
2021/01/25 10:22:22;;;;;;;17.83;8.40;;;2.60;99.90;;;;;;10398001;28;20499;-61
2021/01/25 10:27:23;;;;;;;13.88;7.55;;;2.70;99.90;;;;;;10370217;28;20468;-61
2021/01/25 10:32:25;;;;;;;18.77;9.45;;;2.70;99.90;;;;;;10372769;28;20046;-61
2021/01/25 10:37:27;;;;;;;16.67;8.32;;;2.70;99.90;;;;;;10379501;28;20073;-62
2021/01/25 10:42:28;;;;;;;13.82;8.82;;;2.80;99.90;;;;;;10386347;28;20493;-61
2021/01/25 10:47:29;;;;;;;18.83;10.07;;;2.80;99.90;;;;;;10378329;28;20041;-61
2021/01/25 10:52:32;;;;;;;15.73;9.55;;;2.70;99.90;;;;;;10347400;28;20098;-61
2021/01/25 10:57:34;;;;;;;23.08;13.15;;;2.70;99.90;;;;;;10367789;28;20385;-61
2021/01/25 11:02:35;;;;;;;17.60;10.75;;;2.70;99.90;;;;;;10356746;28;20448;-61
2021/01/25 11:07:37;;;;;;;18.15;10.15;;;2.70;99.90;;;;;;10360095;28;20057;-61
2021/01/25 11:12:39;;;;;;;21.00;11.57;;;2.50;99.90;;;;;;10376413;28;20052;-61
2021/01/25 11:17:40;;;;;;;19.55;10.68;;;2.40;99.90;;;;;;10392683;28;20103;-61
2021/01/25 11:22:41;;;;;;;23.48;10.98;;;2.50;99.90;;;;;;10392355;28;20053;-61
2021/01/25 11:27:43;;;;;;;19.00;10.35;;;2.30;99.90;;;;;;10374616;28;20103;-61
2021/01/25 11:32:44;;;;;;;18.05;11.07;;;2.30;99.90;;;;;;10372546;28;20452;-61
2021/01/25 11:37:45;;;;;;;16.92;10.50;;;2.30;99.90;;;;;;10391221;28;20061;-61
2021/01/25 11:42:47;;;;;;;20.55;11.50;;;2.30;99.90;;;;;;10361231;28;20049;-61
2021/01/25 11:47:48;;;;;;;20.58;11.18;;;2.30;99.90;;;;;;10382802;28;20395;-64
2021/01/25 11:52:50;;;;;;;24.02;13.88;;;2.30;99.90;;;;;;10396144;28;20051;-63
2021/01/25 11:57:51;;;;;;;23.35;12.73;;;2.60;99.90;;;;;;10401389;28;20037;-63
2021/01/25 12:02:52;;;;;;;20.70;10.90;;;2.60;99.90;;;;;;10401808;28;20044;-64
2021/01/25 12:07:54;;;;;;;20.23;11.25;;;2.70;99.90;;;;;;10402295;28;20064;-63
2021/01/25 12:12:55;;;;;;;21.58;11.82;;;2.70;99.90;;;;;;10402054;28;20041;-61
2021/01/25 12:17:56;;;;;;;19.85;10.45;;;2.70;99.90;;;;;;10399144;28;20045;-62
2021/01/25 12:22:58;;;;;;;49.28;23.00;;;2.80;99.90;;;;;;10403591;28;20040;-62
2021/01/25 12:27:59;;;;;;;22.70;13.27;;;2.90;99.90;;;;;;10377112;28;20041;-61
2021/01/25 12:33:00;;;;;;;25.15;12.98;;;2.90;99.90;;;;;;10385131;28;20052;-62
2021/01/25 12:38:03;;;;;;;20.75;12.32;;;2.90;99.90;;;;;;10404559;28;20133;-62
2021/01/25 12:43:04;;;;;;;21.02;11.80;;;3.00;99.90;;;;;;10368465;28;20076;-61
2021/01/25 12:48:06;;;;;;;27.58;14.38;;;3.00;99.90;;;;;;10383864;28;20049;-62
2021/01/25 12:53:07;;;;;;;23.40;11.73;;;3.00;99.90;;;;;;10347656;28;20046;-62
2021/01/25 12:58:08;;;;;;;20.38;11.43;;;3.00;99.90;;;;;;10382335;28;20436;-61
2021/01/25 13:03:10;;;;;;;20.02;10.88;;;3.10;99.90;;;;;;10383896;28;20060;-61
2021/01/25 13:08:12;;;;;;;21.75;11.20;;;3.20;99.90;;;;;;10377944;28;20054;-60
2021/01/25 13:13:13;;;;;;;21.67;10.60;;;3.20;99.90;;;;;;10404054;28;20050;-62
2021/01/25 13:18:14;;;;;;;18.90;11.70;;;3.30;99.90;;;;;;10360617;28;20804;-60
2021/01/25 13:23:16;;;;;;;22.92;11.13;;;3.20;99.90;;;;;;10381249;28;20060;-61
2021/01/25 13:28:18;;;;;;;19.98;11.48;;;3.20;99.90;;;;;;10379664;28;20045;-62
2021/01/25 13:33:19;;;;;;;23.80;10.95;;;3.20;99.90;;;;;;10373035;28;20068;-61
2021/01/25 13:38:20;;;;;;;19.10;11.65;;;3.20;99.90;;;;;;10368542;28;20058;-60
2021/01/25 13:43:21;;;;;;;19.05;10.57;;;3.20;99.90;;;;;;10388268;28;20107;-60
2021/01/25 13:48:23;;;;;;;22.45;11.90;;;3.00;99.90;;;;;;10389314;28;20056;-60
2021/01/25 13:53:24;;;;;;;24.02;11.13;;;3.00;99.90;;;;;;10393717;28;20049;-60
2021/01/25 13:58:25;;;;;;;21.95;12.20;;;2.90;99.90;;;;;;10390805;28;20045;-61
2021/01/25 14:03:27;;;;;;;20.50;11.80;;;2.80;99.90;;;;;;10383692;28;20053;-61
2021/01/25 14:08:28;;;;;;;24.60;13.07;;;2.70;99.90;;;;;;10387963;28;20061;-62
2021/01/25 14:13:29;;;;;;;20.40;11.27;;;2.70;99.90;;;;;;10393840;28;20139;-60
2021/01/25 14:18:31;;;;;;;21.58;11.23;;;2.60;99.90;;;;;;10392238;28;20116;-61
2021/01/25 14:23:32;;;;;;;19.25;12.02;;;2.50;99.90;;;;;;10398504;28;20049;-65
2021/01/25 14:28:33;;;;;;;20.92;11.63;;;2.50;99.90;;;;;;10396381;28;20049;-65
2021/01/25 14:33:34;;;;;;;20.33;10.50;;;2.50;99.90;;;;;;10399907;28;20095;-60
2021/01/25 14:38:37;;;;;;;17.65;9.98;;;2.50;99.90;;;;;;10395890;28;20099;-60
2021/01/25 14:43:38;;;;;;;19.15;9.50;;;2.50;99.90;;;;;;10392131;28;20477;-60
2021/01/25 14:48:39;;;;;;;16.90;9.73;;;2.50;99.90;;;;;;10394949;28;21422;-61
2021/01/25 14:53:41;;;;;;;16.70;9.52;;;2.50;99.90;;;;;;10399362;28;20037;-61
2021/01/25 14:58:42;;;;;;;18.23;10.77;;;2.50;99.90;;;;;;10395580;28;20049;-61
2021/01/25 15:03:43;;;;;;;21.70;11.60;;;2.60;99.90;;;;;;10381395;28;20057;-61
2021/01/25 15:08:44;;;;;;;18.25;10.45;;;2.60;99.90;;;;;;10396018;28;20057;-61
2021/01/25 15:13:46;;;;;;;19.20;10.68;;;2.70;99.90;;;;;;10400037;28;20529;-62
2021/01/25 15:18:49;;;;;;;19.50;11.52;;;2.70;99.90;;;;;;10401120;28;20053;-62
2021/01/25 15:23:50;;;;;;;16.83;8.98;;;2.70;99.90;;;;;;10386809;28;20057;-61
2021/01/25 15:28:51;;;;;;;19.95;10.07;;;2.70;99.90;;;;;;10378502;28;20057;-62
2021/01/25 15:33:53;;;;;;;20.67;9.80;;;2.60;99.90;;;;;;10382748;28;20484;-61
2021/01/25 15:38:54;;;;;;;17.40;9.43;;;2.50;99.90;;;;;;10396957;28;20045;-61
2021/01/25 15:43:55;;;;;;;16.58;9.60;;;2.50;99.90;;;;;;10391359;28;20046;-61
2021/01/25 15:48:56;;;;;;;20.48;10.70;;;2.50;99.90;;;;;;10368844;28;20426;-61
2021/01/25 15:53:58;;;;;;;15.15;8.95;;;2.50;99.90;;;;;;10387477;28;20173;-62
2021/01/25 15:58:59;;;;;;;16.92;9.98;;;2.40;99.90;;;;;;10390025;28;20063;-61
2021/01/25 16:04:00;;;;;;;14.32;8.57;;;2.30;99.90;;;;;;10406579;28;20458;-61
2021/01/25 16:09:03;;;;;;;18.60;10.15;;;2.30;99.90;;;;;;10406409;28;20080;-61
2021/01/25 16:14:04;;;;;;;16.45;8.63;;;2.20;99.90;;;;;;10405771;28;20080;-62
2021/01/25 16:19:05;;;;;;;16.27;8.98;;;2.20;99.90;;;;;;10405287;28;20102;-62
2021/01/25 16:24:09;;;;;;;15.48;9.27;;;2.10;99.90;;;;;;10385696;28;20055;-62
2021/01/25 16:29:13;;;;;;;14.85;8.82;;;2.10;99.90;;;;;;10402099;28;20053;-62
2021/01/25 16:34:14;;;;;;;15.02;8.18;;;2.00;99.90;;;;;;10403574;28;20479;-62
2021/01/25 16:39:15;;;;;;;19.48;9.85;;;1.90;99.90;;;;;;10384538;28;20113;-61
2021/01/25 16:44:17;;;;;;;21.40;11.68;;;2.00;99.90;;;;;;10370320;28;20045;-62
2021/01/25 16:49:18;;;;;;;19.60;10.75;;;1.90;99.90;;;;;;10395705;28;20065;-62
2021/01/25 16:54:19;;;;;;;16.52;9.35;;;1.90;99.90;;;;;;10393748;28;20057;-62
2021/01/25 16:59:21;;;;;;;17.60;10.15;;;2.00;99.90;;;;;;10375337;28;20046;-61
2021/01/25 17:04:22;;;;;;;19.83;9.45;;;1.90;99.90;;;;;;10382691;28;20111;-61
2021/01/25 17:09:23;;;;;;;18.95;9.63;;;1.90;99.90;;;;;;10398612;28;20042;-62
2021/01/25 17:14:24;;;;;;;19.85;10.13;;;1.90;99.90;;;;;;10366092;28;20072;-62
2021/01/25 17:19:25;;;;;;;22.80;11.48;;;1.90;99.90;;;;;;10376151;28;20120;-62
2021/01/25 17:24:28;;;;;;;23.13;11.13;;;1.90;99.90;;;;;;10378684;28;20135;-67
2021/01/25 17:29:29;;;;;;;22.58;12.13;;;2.00;99.90;;;;;;10395782;28;20115;-69
2021/01/25 17:34:33;;;;;;;30.55;11.98;;;1.90;99.90;;;;;;10375771;28;20500;-69
2021/01/25 17:39:34;;;;;;;22.98;12.02;;;2.00;99.90;;;;;;10400723;28;20506;-69
2021/01/25 17:44:36;;;;;;;27.83;13.45;;;1.90;99.90;;;;;;10399039;28;20053;-70
2021/01/25 17:49:39;;;;;;;23.58;11.85;;;2.00;99.90;;;;;;10408590;28;20061;-69
2021/01/25 17:54:42;;;;;;;19.40;10.85;;;2.00;99.90;;;;;;10400176;28;20046;-70
2021/01/25 17:59:44;;;;;;;19.73;10.00;;;1.90;99.90;;;;;;10401137;28;20070;-71
2021/01/25 18:04:45;;;;;;;20.13;10.85;;;1.90;99.90;;;;;;10397278;28;20088;-70
2021/01/25 18:09:46;;;;;;;22.52;11.80;;;1.90;99.90;;;;;;10382651;28;20091;-70
2021/01/25 18:14:47;;;;;;;20.75;11.68;;;1.90;99.90;;;;;;10394921;28;20057;-70
2021/01/25 18:19:49;;;;;;;14.98;7.72;;;1.90;99.90;;;;;;10397316;28;20126;-68
2021/01/25 18:24:50;;;;;;;12.80;7.35;;;1.90;99.90;;;;;;10361295;28;20056;-69
2021/01/25 18:29:51;;;;;;;11.93;6.97;;;1.90;99.90;;;;;;10354398;28;20057;-71
2021/01/25 18:34:53;;;;;;;13.55;7.25;;;1.80;99.90;;;;;;10368100;28;20095;-69
2021/01/25 18:39:54;;;;;;;12.57;6.50;;;1.70;99.90;;;;;;10359601;28;20084;-66
2021/01/25 18:44:55;;;;;;;7.88;4.57;;;1.70;99.90;;;;;;10381371;28;20472;-68
2021/01/25 18:49:57;;;;;;;9.65;4.80;;;1.70;99.90;;;;;;10385405;28;20131;-68
2021/01/25 18:54:58;;;;;;;6.88;3.05;;;1.70;99.90;;;;;;10397938;28;20490;-69
2021/01/25 18:59:59;;;;;;;28.05;11.63;;;1.60;99.90;;;;;;10366081;28;20519;-70
2021/01/25 19:05:01;;;;;;;15.57;8.23;;;1.50;99.90;;;;;;10396792;28;20517;-71
2021/01/25 19:10:04;;;;;;;8.57;4.95;;;1.40;99.90;;;;;;10384170;28;20422;-69
2021/01/25 19:15:12;;;;;;;10.85;6.07;;;1.30;99.90;;;;;;10398331;28;20144;-71
2021/01/25 19:20:16;;;;;;;11.43;5.93;;;1.20;99.90;;;;;;10372029;28;20075;-70
2021/01/25 19:25:20;;;;;;;11.15;6.13;;;1.20;99.90;;;;;;10356875;28;20056;-69
2021/01/25 19:30:23;;;;;;;7.38;4.82;;;1.10;99.90;;;;;;10381522;28;20551;-70
2021/01/25 19:35:28;;;;;;;6.50;3.75;;;1.00;99.90;;;;;;10394836;28;20080;-70
2021/01/25 19:40:35;;;;;;;8.15;4.07;;;1.10;99.90;;;;;;10366918;28;20061;-70
2021/01/25 19:45:39;;;;;;;6.80;4.10;;;1.10;99.90;;;;;;10376766;28;20053;-70
2021/01/25 19:50:42;;;;;;;4.55;3.10;;;1.10;99.90;;;;;;10374453;28;20136;-70
2021/01/25 19:55:43;;;;;;;8.23;4.90;;;1.10;99.90;;;;;;10358904;28;20046;-68
2021/01/25 20:00:47;;;;;;;11.32;5.10;;;1.10;99.90;;;;;;10367385;28;20073;-70
2021/01/25 20:05:51;;;;;;;9.13;5.28;;;1.00;99.90;;;;;;10342689;28;20484;-68
2021/01/25 20:10:52;;;;;;;8.75;5.57;;;0.90;99.90;;;;;;10394170;28;20049;-69
2021/01/25 20:15:53;;;;;;;9.02;5.82;;;0.80;99.90;;;;;;10373167;28;20111;-70
2021/01/25 20:20:55;;;;;;;10.30;4.50;;;0.70;99.90;;;;;;10384864;28;20060;-68
2021/01/25 20:25:58;;;;;;;7.93;4.95;;;0.80;99.90;;;;;;10378335;28;20133;-67
2021/01/25 20:31:00;;;;;;;9.18;5.03;;;0.70;99.90;;;;;;10360513;28;20388;-69
2021/01/25 20:36:05;;;;;;;11.05;5.25;;;0.80;99.90;;;;;;10382073;28;20045;-69
2021/01/25 20:41:07;;;;;;;8.57;5.10;;;0.90;99.90;;;;;;10381847;28;20472;-68
2021/01/25 20:46:09;;;;;;;20.17;8.63;;;1.00;99.90;;;;;;10362903;28;20131;-69
2021/01/25 20:51:12;;;;;;;11.65;6.30;;;1.00;99.90;;;;;;10372407;28;20061;-68
2021/01/25 20:56:14;;;;;;;11.20;6.18;;;1.00;99.90;;;;;;10391521;28;20047;-69
2021/01/25 21:01:16;;;;;;;10.10;5.50;;;1.00;99.90;;;;;;10400729;28;20049;-68
2021/01/25 21:06:17;;;;;;;11.70;6.25;;;0.90;99.90;;;;;;10397702;28;20045;-69
2021/01/25 21:11:18;;;;;;;11.95;7.20;;;0.90;99.90;;;;;;10389985;28;20049;-68
2021/01/25 21:16:20;;;;;;;25.27;9.48;;;0.80;99.90;;;;;;10397901;28;20111;-67
2021/01/25 21:21:21;;;;;;;18.60;7.90;;;0.80;99.90;;;;;;10388591;28;20045;-70
2021/01/25 21:26:22;;;;;;;18.38;9.25;;;0.70;99.90;;;;;;10369421;28;20137;-69
2021/01/25 21:31:23;;;;;;;14.85;9.20;;;0.60;99.90;;;;;;10391230;28;20123;-69
2021/01/25 21:36:24;;;;;;;14.57;8.00;;;0.40;99.90;;;;;;10373026;28;20065;-69
2021/01/25 21:41:26;;;;;;;17.63;8.63;;;0.40;99.90;;;;;;10398796;28;20041;-69
2021/01/25 21:46:27;;;;;;;15.13;9.57;;;0.30;99.90;;;;;;10360673;28;20858;-68
2021/01/25 21:51:32;;;;;;;14.18;7.55;;;0.30;99.90;;;;;;10363572;28;20091;-69
2021/01/25 21:56:34;;;;;;;19.52;8.93;;;0.30;99.90;;;;;;10345917;28;20038;-68
2021/01/25 22:01:35;;;;;;;17.58;9.43;;;0.30;99.90;;;;;;10370410;28;20053;-69
2021/01/25 22:06:37;;;;;;;17.35;9.07;;;0.40;99.90;;;;;;10373234;28;20134;-69
2021/01/25 22:11:38;;;;;;;18.48;9.68;;;0.40;99.90;;;;;;10379267;28;20049;-70
2021/01/25 22:16:40;;;;;;;22.80;11.00;;;0.40;99.90;;;;;;10340715;28;20049;-67
2021/01/25 22:21:41;;;;;;;23.42;10.93;;;0.50;99.90;;;;;;10383533;28;20491;-67
2021/01/25 22:27:01;;;;;;;21.20;9.90;;;0.50;99.90;;;;;;10301715;28;20136;-69
2021/01/25 22:32:02;;;;;;;23.25;10.73;;;0.60;99.90;;;;;;10375835;28;20060;-68
2021/01/25 22:37:04;;;;;;;21.65;10.82;;;0.70;99.90;;;;;;10386951;28;20748;-69
2021/01/25 22:42:06;;;;;;;18.73;9.40;;;0.80;99.90;;;;;;10399837;28;20068;-68
2021/01/25 22:47:07;;;;;;;18.52;9.40;;;0.80;99.90;;;;;;10401085;28;20044;-69
2021/01/25 22:52:09;;;;;;;21.92;9.25;;;0.80;99.90;;;;;;10398337;28;20102;-70
2021/01/25 22:57:11;;;;;;;15.02;8.60;;;0.90;99.90;;;;;;10391451;28;26507;-69
2021/01/25 23:02:12;;;;;;;17.75;9.85;;;0.90;99.90;;;;;;10405414;28;20128;-70
2021/01/25 23:07:14;;;;;;;20.92;9.57;;;0.90;99.90;;;;;;10375317;28;20438;-70
2021/01/25 23:12:15;;;;;;;18.92;8.88;;;0.90;99.90;;;;;;10399895;28;20491;-70
2021/01/25 23:17:16;;;;;;;17.73;9.52;;;0.90;99.90;;;;;;10389528;28;20312;-70
2021/01/25 23:22:17;;;;;;;18.90;8.98;;;1.00;99.90;;;;;;10378590;28;20060;-70
2021/01/25 23:27:19;;;;;;;20.95;11.25;;;0.90;99.90;;;;;;10356425;28;20073;-70
2021/01/25 23:32:20;;;;;;;23.65;10.40;;;0.90;99.90;;;;;;10366290;28;20053;-70
2021/01/25 23:37:21;;;;;;;21.42;10.20;;;0.90;99.90;;;;;;10349800;28;20046;-68
2021/01/25 23:42:22;;;;;;;22.88;10.15;;;0.90;99.90;;;;;;10355569;28;20061;-68
2021/01/25 23:47:24;;;;;;;20.45;10.65;;;0.90;99.90;;;;;;10362475;28;20054;-68
2021/01/25 23:52:25;;;;;;;16.83;9.70;;;0.90;99.90;;;;;;10374844;28;20049;-69
